»·PEaware :: WAT234 KSEA-KSFO

WAT234 :: KSEA-KSFO

FLIGHT INFORMATION

Flight Status: Arrived
Operator:
Walker Air Transport
More flights by this operator :: More flights under this callsign
Pilot: Eduardo Elias G. (24838)
Aircraft: AIRBUS A320
(A320)
More flights by this aircraft type
Origin: KSEA Seattle-Tacoma Intl
United States
Destination: KSFO San Francisco Intl
United States
More flights between these airports :: More routes between these airports
Route: HAROB6 FEPOT Q3 FOWND MLBEC BDEGA3
File this flight plan on PilotEdge
Remarks:
Altitude:
(Current/Filed)
37,000ft
Speed:
(Current/Filed)
450kts
Departed: 19-Jan-21 09:55 PM
Arrived: 19-Jan-21 11:28 PM
Distance/Time
Traveled:
590nm/1:32
Distance/Time
To Go:
Arrived

Flight Plot

Page will automatically refresh every two minutes.

Flight plan parsing failed; only flown route is shown


Map Options




Map Legend


Flown Route
Filed Route
Departure Airport
Arrival Airport
Navaid (VOR, NDB)
Fix

Horizontal Profiles

Position Reports

Time Latitude Longitude Heading Altitude Ground
Speed
19-Jan-21 21:21 47.446018 -122.303079 275 447ft 0kts
19-Jan-21 21:22 47.446018 -122.303079 275 447ft 0kts
19-Jan-21 21:23 47.446018 -122.303079 275 447ft 0kts
19-Jan-21 21:24 47.446018 -122.303079 275 447ft 0kts
19-Jan-21 21:25 47.446018 -122.303079 275 447ft 0kts
19-Jan-21 21:26 47.446018 -122.303079 275 447ft 0kts
19-Jan-21 21:27 47.446018 -122.303079 275 447ft 0kts
19-Jan-21 21:28 47.446018 -122.303079 275 447ft 0kts
19-Jan-21 21:29 47.446018 -122.303079 275 447ft 0kts
19-Jan-21 21:30 47.446018 -122.303079 275 447ft 0kts
19-Jan-21 21:31 47.446018 -122.303079 275 447ft 0kts
19-Jan-21 21:32 47.446018 -122.303079 275 447ft 0kts
19-Jan-21 21:33 47.446018 -122.303079 275 447ft 0kts
19-Jan-21 21:34 47.446018 -122.303079 275 447ft 0kts
19-Jan-21 21:35 47.446018 -122.303079 275 447ft 0kts
19-Jan-21 21:36 47.446018 -122.303079 275 447ft 0kts
19-Jan-21 21:37 47.446018 -122.303079 275 447ft 0kts
19-Jan-21 21:38 47.446018 -122.303079 275 447ft 0kts
19-Jan-21 21:39 47.446018 -122.303079 275 447ft 0kts
19-Jan-21 21:40 47.446018 -122.303079 275 447ft 0kts
19-Jan-21 21:41 47.446018 -122.303079 275 447ft 0kts
19-Jan-21 21:42 47.446018 -122.303079 275 447ft 0kts
19-Jan-21 21:44 47.445888 -122.302571 321 447ft 2kts
19-Jan-21 21:45 47.445522 -122.302456 23 447ft 0kts
19-Jan-21 21:46 47.445523 -122.302456 23 447ft 0kts
19-Jan-21 21:47 47.445523 -122.302456 23 447ft 0kts
19-Jan-21 21:48 47.445523 -122.302456 23 447ft 0kts
19-Jan-21 21:49 47.446503 -122.301928 342 447ft 8kts
19-Jan-21 21:50 47.448243 -122.305402 3 447ft 13kts
19-Jan-21 21:51 47.452699 -122.306266 0 447ft 20kts
19-Jan-21 21:52 47.459547 -122.306198 359 447ft 28kts
19-Jan-21 21:53 47.463475 -122.306205 342 447ft 0kts
19-Jan-21 21:54 47.463667 -122.307434 239 447ft 12kts
19-Jan-21 21:55 47.445961 -122.307881 179 524ft 169kts
19-Jan-21 21:56 47.391932 -122.308360 182 3053ft 230kts
19-Jan-21 21:57 47.324615 -122.323424 223 5823ft 257kts
19-Jan-21 21:57 47.310114 -122.406431 265 8465ft 259kts
19-Jan-21 21:59 47.309228 -122.529454 275 12313ft 253kts
19-Jan-21 22:00 47.312210 -122.633712 274 14908ft 254kts
19-Jan-21 22:01 47.315149 -122.742155 274 16525ft 288kts
19-Jan-21 22:02 47.290752 -122.865503 253 18124ft 328kts
19-Jan-21 22:02 47.262169 -122.970298 254 19770ft 336kts
19-Jan-21 22:03 47.206461 -123.084500 224 21545ft 373kts
19-Jan-21 22:05 47.106559 -123.190130 224 23420ft 385kts
19-Jan-21 22:05 47.015626 -123.219816 184 24613ft 433kts
19-Jan-21 22:06 46.893912 -123.211746 187 25997ft 438kts
19-Jan-21 22:07 46.770549 -123.208687 185 27269ft 447kts
19-Jan-21 22:08 46.645602 -123.204323 185 28424ft 453kts
19-Jan-21 22:10 46.497069 -123.199363 185 29676ft 460kts
19-Jan-21 22:10 46.389971 -123.195867 185 30472ft 465kts
19-Jan-21 22:11 46.259973 -123.191607 184 31497ft 466kts
19-Jan-21 22:12 46.130800 -123.187378 184 32548ft 465kts
19-Jan-21 22:13 46.001724 -123.183188 184 33576ft 462kts
19-Jan-21 22:14 45.873220 -123.179069 183 34382ft 462kts
19-Jan-21 22:15 45.746523 -123.174931 183 35099ft 461kts
19-Jan-21 22:16 45.618062 -123.170860 183 35712ft 461kts
19-Jan-21 22:17 45.490038 -123.166754 183 36254ft 461kts
19-Jan-21 22:18 45.361466 -123.162694 184 36706ft 461kts
19-Jan-21 22:19 45.233294 -123.158644 183 37062ft 461kts
19-Jan-21 22:20 45.104610 -123.154574 183 37350ft 463kts
19-Jan-21 22:21 44.976620 -123.150556 183 37361ft 459kts
19-Jan-21 22:22 44.848697 -123.146587 183 37364ft 459kts
19-Jan-21 22:23 44.720957 -123.142611 183 37353ft 460kts
19-Jan-21 22:24 44.592690 -123.138651 183 37376ft 460kts
19-Jan-21 22:25 44.464469 -123.134673 182 37356ft 461kts
19-Jan-21 22:26 44.336118 -123.129860 182 37376ft 461kts
19-Jan-21 22:27 44.208017 -123.125391 182 37382ft 462kts
19-Jan-21 22:28 44.078068 -123.120775 182 37367ft 471kts
19-Jan-21 22:29 43.945783 -123.116090 181 37358ft 479kts
19-Jan-21 22:30 43.811884 -123.111373 181 37356ft 485kts
19-Jan-21 22:31 43.676281 -123.106638 181 37374ft 488kts
19-Jan-21 22:32 43.539887 -123.101893 181 37385ft 491kts
19-Jan-21 22:33 43.403351 -123.097135 181 37384ft 492kts
19-Jan-21 22:34 43.266563 -123.092411 181 37377ft 488kts
19-Jan-21 22:35 43.131203 -123.087748 180 37296ft 485kts
19-Jan-21 22:36 42.995995 -123.083137 180 37278ft 488kts
19-Jan-21 22:37 42.859833 -123.078488 180 37285ft 492kts
19-Jan-21 22:38 42.722526 -123.073858 180 37331ft 495kts
19-Jan-21 22:39 42.584670 -123.069164 180 37336ft 493kts
19-Jan-21 22:40 42.448017 -123.064597 180 37291ft 490kts
19-Jan-21 22:41 42.311523 -123.060216 180 37273ft 492kts
19-Jan-21 22:42 42.173984 -123.055760 180 37328ft 495kts
19-Jan-21 22:43 42.036113 -123.051350 179 37364ft 497kts
19-Jan-21 22:44 41.897821 -123.046932 179 37355ft 496kts
19-Jan-21 22:45 41.766120 -123.042721 179 37278ft 495kts
19-Jan-21 22:46 41.630558 -123.038417 179 37277ft 498kts
19-Jan-21 22:47 41.491678 -123.034030 179 37339ft 501kts
19-Jan-21 22:48 41.351557 -123.029651 179 37353ft 503kts
19-Jan-21 22:49 41.212021 -123.025359 178 37306ft 500kts
19-Jan-21 22:50 41.072881 -123.021183 178 37232ft 499kts
19-Jan-21 22:51 40.934161 -123.017007 178 37245ft 501kts
19-Jan-21 22:52 40.793665 -123.012772 178 37252ft 506kts
19-Jan-21 22:53 40.652841 -123.008609 178 37237ft 508kts
19-Jan-21 22:54 40.510975 -123.004381 178 37274ft 510kts
19-Jan-21 22:55 40.368591 -123.000182 178 37260ft 511kts
19-Jan-21 22:56 40.226444 -122.995985 178 37262ft 512kts
19-Jan-21 22:57 40.083883 -122.991808 177 37248ft 509kts
19-Jan-21 22:58 39.942368 -122.987674 177 37169ft 508kts
19-Jan-21 22:59 39.800275 -122.983526 177 37203ft 513kts
19-Jan-21 23:00 39.657188 -122.979380 177 37200ft 516kts
19-Jan-21 23:01 39.513464 -122.975209 177 37220ft 519kts
19-Jan-21 23:02 39.368761 -122.971082 176 37206ft 520kts
19-Jan-21 23:03 39.227244 -122.967023 176 34954ft 508kts
19-Jan-21 23:04 39.088380 -122.963120 176 32855ft 495kts
19-Jan-21 23:05 38.951023 -122.960548 177 30643ft 490kts
19-Jan-21 23:06 38.819488 -122.943803 163 28962ft 454kts
19-Jan-21 23:07 38.696276 -122.906212 162 26262ft 457kts
19-Jan-21 23:08 38.573642 -122.870526 162 24499ft 447kts
19-Jan-21 23:09 38.453822 -122.835087 161 22617ft 434kts
19-Jan-21 23:10 38.336957 -122.800816 161 21055ft 425kts
19-Jan-21 23:11 38.223219 -122.767554 160 19393ft 413kts
19-Jan-21 23:12 38.115270 -122.728739 138 17436ft 383kts
19-Jan-21 23:13 38.058862 -122.628386 110 15714ft 339kts
19-Jan-21 23:14 38.011480 -122.527835 113 14431ft 316kts
19-Jan-21 23:15 37.969232 -122.439210 112 13997ft 271kts
19-Jan-21 23:16 37.933221 -122.363304 111 13466ft 236kts
19-Jan-21 23:17 37.900071 -122.293891 112 12248ft 216kts
19-Jan-21 23:18 37.872577 -122.235505 114 10451ft 187kts
19-Jan-21 23:19 37.895891 -122.189088 359 8200ft 211kts
19-Jan-21 23:20 37.922303 -122.244181 243 5996ft 210kts
19-Jan-21 23:21 37.873989 -122.252832 153 5014ft 197kts
19-Jan-21 23:22 37.822208 -122.237324 205 4145ft 210kts
19-Jan-21 23:23 37.769730 -122.272463 208 3079ft 213kts
19-Jan-21 23:24 37.719761 -122.305765 208 2024ft 196kts
19-Jan-21 23:25 37.677308 -122.337235 209 1359ft 150kts
19-Jan-21 23:26 37.641067 -122.360774 208 392ft 141kts
19-Jan-21 23:27 37.613976 -122.378863 206 27ft 22kts
19-Jan-21 23:28 37.610580 -122.381918 288 27ft 7kts
19-Jan-21 23:29 37.610717 -122.382286 296 27ft 0kts
19-Jan-21 23:30 37.610778 -122.382438 296 27ft 1kts
19-Jan-21 23:31 37.611463 -122.383567 300 27ft 7kts
19-Jan-21 23:32 37.612222 -122.383611 19 27ft 0kts
19-Jan-21 23:33 37.612222 -122.383611 19 27ft 0kts
19-Jan-21 23:35 37.612222 -122.383611 19 27ft 0kts
19-Jan-21 23:36 37.612222 -122.383611 19 27ft 0kts
19-Jan-21 23:37 37.612222 -122.383611 19 27ft 0kts
19-Jan-21 23:38 37.612222 -122.383611 19 27ft 0kts
19-Jan-21 23:39 37.612222 -122.383611 19 27ft 0kts

Navigation Log

Ident Type
Flight plan parsing failed, navigation log unavailable